Terminal Aerodrome Forecast
Issued by NWS North Platte, NE

Home | Current Version | Previous Version | Text Only | Print | Product List | Glossary On
Versions: 1 2 3 4 5 6 7 8 9 10 11 12 13 14 15
149
FTUS43 KLBF 241734 AAE
TAFLBF
TAF AMD
KLBF 241734Z 2418/2518 04012KT 4SM BR OVC010
      TEMPO 2418/2421 1SM -SN BR OVC007
     FM242100 01012KT 1SM -SN OVC008
     FM250400 34018G26KT 4SM -SN BLSN OVC015
     FM251000 33019G27KT 2SM BLSN OVC015
     FM251200 33016G22KT P6SM OVC015=

USA.gov is the U.S. government's official web portal to all federal, state and local government web resources and services.